Time;durP1;ratioP1;P1;durP2;ratioP2;P2;SDS_P1;SDS_P2;PMS_P1;PMS_P2;Temp;Humidity;BMP_temperature;BMP_pressure;BME280_temperature;BME280_humidity;BME280_pressure;Samples;Min_cycle;Max_cycle;Signal;HPM_P1;HPM_P2
2023/04/27 00:00:16;;;;;;;;;;;;;;;;;;1049880;28;4029;-47
2023/04/27 00:01:10;;;;;;;;;;;;;;;;;;1046071;28;3965;-51
2023/04/27 00:01:41;;;;;;;;;;;;;;;;;;1047250;28;1739;-47
2023/04/27 00:02:12;;;;;;;;;;;;;;;;;;1039650;28;4048;-48
2023/04/27 00:02:42;;;;;;;;;;;;;;;;;;1041389;28;3143;-50
2023/04/27 00:03:12;;;;;;;;;;;;;;;;;;1040473;28;4063;-51
2023/04/27 00:03:44;;;;;;;;;;;;;;;;;;1042723;28;1629;-49
2023/04/27 00:04:15;;;;;;;;;;;;;;;;;;1040922;28;3724;-50
2023/04/27 00:04:45;;;;;;;;;;;;;;;;;;1043028;28;1475;-49
2023/04/27 00:05:16;;;;;;;;;;;;;;;;;;1041388;28;4032;-50
2023/04/27 00:05:46;;;;;;;;;;;;;;;;;;1042592;28;2055;-48
2023/04/27 00:06:17;;;;;;;;;;;;;;;;;;1043048;28;4108;-54
2023/04/27 00:06:47;;;;;;;;;;;;;;;;;;1042722;28;2932;-47
2023/04/27 00:07:17;;;;;;;;;;;;;;;;;;1042965;28;4018;-51
2023/04/27 00:07:47;;;;;;;;;;;;;;;;;;1040713;28;2229;-51
2023/04/27 00:08:18;;;;;;;;;;;;;;;;;;1043032;28;4001;-53
2023/04/27 00:08:48;;;;;;;;;;;;;;;;;;1041554;28;1846;-53
2023/04/27 00:09:18;;;;;;;;;;;;;;;;;;1042387;28;3781;-56
2023/04/27 00:09:50;;;;;;;;;;;;;;;;;;1040575;28;2894;-56
2023/04/27 00:10:21;;;;;;;;;;;;;;;;;;1040232;28;3991;-51
2023/04/27 00:10:51;;;;;;;;;;;;;;;;;;1040289;28;3023;-47
2023/04/27 00:11:21;;;;;;;;;;;;;;;;;;1042307;28;3786;-54
2023/04/27 00:11:51;;;;;;;;;;;;;;;;;;1042628;28;2187;-47
2023/04/27 00:12:22;;;;;;;;;;;;;;;;;;1042741;28;3964;-49
2023/04/27 00:12:52;;;;;;;;;;;;;;;;;;1043441;28;1689;-47
2023/04/27 00:13:23;;;;;;;;;;;;;;;;;;1042123;28;4031;-49
2023/04/27 00:13:53;;;;;;;;;;;;;;;;;;1043282;28;1755;-47
2023/04/27 00:14:27;;;;;;;;;;;;;;;;;;1042124;28;3876;-53
2023/04/27 00:14:57;;;;;;;;;;;;;;;;;;1042598;28;1803;-50
2023/04/27 00:15:28;;;;;;;;;;;;;;;;;;1042050;28;3957;-53
2023/04/27 00:16:02;;;;;;;;;;;;;;;;;;1041065;28;3011;-48
2023/04/27 00:16:32;;;;;;;;;;;;;;;;;;1041802;28;3843;-48
2023/04/27 00:17:02;;;;;;;;;;;;;;;;;;1042161;28;4039;-49
2023/04/27 00:17:33;;;;;;;;;;;;;;;;;;1041221;28;2897;-51
2023/04/27 00:18:03;;;;;;;;;;;;;;;;;;1041571;28;3859;-48
2023/04/27 00:18:33;;;;;;;;;;;;;;;;;;1046067;28;1815;-51
2023/04/27 00:19:03;;;;;;;;;;;;;;;;;;1044477;28;3957;-48
2023/04/27 00:19:34;;;;;;;;;;;;;;;;;;1046627;28;1602;-51
2023/04/27 00:20:06;;;;;;;;;;;;;;;;;;1046823;28;4055;-46
2023/04/27 00:20:37;;;;;;;;;;;;;;;;;;1045638;28;2705;-51
2023/04/27 00:21:08;;;;;;;;;;;;;;;;;;1046172;28;4031;-52
2023/04/27 00:21:38;;;;;;;;;;;;;;;;;;1046408;28;1949;-54
2023/04/27 00:22:10;;;;;;;;;;;;;;;;;;1045789;28;4146;-47
2023/04/27 00:22:40;;;;;;;;;;;;;;;;;;1045376;28;2857;-48
2023/04/27 00:23:11;;;;;;;;;;;;;;;;;;1046459;28;3959;-50
2023/04/27 00:23:41;;;;;;;;;;;;;;;;;;1046617;28;1862;-50
2023/04/27 00:24:11;;;;;;;;;;;;;;;;;;1047455;28;4028;-50
2023/04/27 00:24:41;;;;;;;;;;;;;;;;;;1047392;28;1716;-54
2023/04/27 00:25:12;;;;;;;;;;;;;;;;;;1044514;28;4344;-51
2023/04/27 00:25:42;;;;;;;;;;;;;;;;;;1046410;28;3099;-49
2023/04/27 00:26:12;;;;;;;;;;;;;;;;;;1046429;28;4009;-47
2023/04/27 00:26:43;;;;;;;;;;;;;;;;;;1044373;28;2975;-49
2023/04/27 00:27:13;;;;;;;;;;;;;;;;;;1046499;28;3767;-50
2023/04/27 00:27:43;;;;;;;;;;;;;;;;;;1045871;28;2881;-48
2023/04/27 00:28:14;;;;;;;;;;;;;;;;;;1044686;28;3892;-48
2023/04/27 00:28:44;;;;;;;;;;;;;;;;;;1046987;28;1647;-51
2023/04/27 00:29:14;;;;;;;;;;;;;;;;;;1046282;28;4058;-48
2023/04/27 00:29:44;;;;;;;;;;;;;;;;;;1046270;28;2871;-48
2023/04/27 00:30:15;;;;;;;;;;;;;;;;;;1045804;28;4396;-49
2023/04/27 00:30:45;;;;;;;;;;;;;;;;;;1044086;28;2720;-48
2023/04/27 00:31:15;;;;;;;;;;;;;;;;;;1054087;28;4395;-53
2023/04/27 00:31:46;;;;;;;;;;;;;;;;;;1053960;28;3190;-52
2023/04/27 00:32:16;;;;;;;;;;;;;;;;;;1054137;28;4283;-49
2023/04/27 00:32:46;;;;;;;;;;;;;;;;;;1055285;28;1743;-50
2023/04/27 00:33:16;;;;;;;;;;;;;;;;;;1043786;28;3757;-51
2023/04/27 00:33:47;;;;;;;;;;;;;;;;;;1046945;28;3250;-47
2023/04/27 00:34:17;;;;;;;;;;;;;;;;;;1045926;28;3875;-50
2023/04/27 00:34:47;;;;;;;;;;;;;;;;;;1046211;28;3405;-49
2023/04/27 00:35:18;;;;;;;;;;;;;;;;;;1045956;28;3846;-48
2023/04/27 00:35:48;;;;;;;;;;;;;;;;;;1046506;28;2845;-49
2023/04/27 00:36:18;;;;;;;;;;;;;;;;;;1044774;28;4064;-51
2023/04/27 00:36:48;;;;;;;;;;;;;;;;;;1047604;28;1907;-52
2023/04/27 00:37:19;;;;;;;;;;;;;;;;;;1045933;28;4001;-48
2023/04/27 00:37:49;;;;;;;;;;;;;;;;;;1046645;28;1931;-48
2023/04/27 00:38:19;;;;;;;;;;;;;;;;;;1045499;28;3864;-47
2023/04/27 00:38:50;;;;;;;;;;;;;;;;;;1042278;28;1808;-50
2023/04/27 00:39:20;;;;;;;;;;;;;;;;;;1045811;28;3934;-50
2023/04/27 00:39:50;;;;;;;;;;;;;;;;;;1047020;28;1839;-52
2023/04/27 00:40:21;;;;;;;;;;;;;;;;;;1046448;28;4043;-49
2023/04/27 00:40:51;;;;;;;;;;;;;;;;;;1046228;28;2914;-49
2023/04/27 00:41:21;;;;;;;;;;;;;;;;;;1047375;28;4046;-49
2023/04/27 00:41:52;;;;;;;;;;;;;;;;;;1047640;28;1740;-45
2023/04/27 00:42:23;;;;;;;;;;;;;;;;;;1047606;28;4047;-52
2023/04/27 00:42:54;;;;;;;;;;;;;;;;;;1046601;28;3074;-50
2023/04/27 00:43:24;;;;;;;;;;;;;;;;;;1045056;28;4059;-50
2023/04/27 00:43:55;;;;;;;;;;;;;;;;;;1047791;28;2030;-48
2023/04/27 00:44:25;;;;;;;;;;;;;;;;;;1047454;28;4013;-46
2023/04/27 00:44:58;;;;;;;;;;;;;;;;;;1045098;28;3100;-52
2023/04/27 00:45:29;;;;;;;;;;;;;;;;;;1045896;28;3968;-52
2023/04/27 00:45:59;;;;;;;;;;;;;;;;;;1046689;28;2969;-50
2023/04/27 00:46:30;;;;;;;;;;;;;;;;;;1047967;28;3912;-52
2023/04/27 00:47:00;;;;;;;;;;;;;;;;;;1046769;28;2865;-50
2023/04/27 00:47:31;;;;;;;;;;;;;;;;;;1047070;28;5324;-49
2023/04/27 00:48:01;;;;;;;;;;;;;;;;;;1046977;28;4079;-47
2023/04/27 00:48:32;;;;;;;;;;;;;;;;;;1048043;28;1736;-48
2023/04/27 00:49:02;;;;;;;;;;;;;;;;;;1046398;28;3942;-52
2023/04/27 00:49:33;;;;;;;;;;;;;;;;;;1046264;28;3102;-50
2023/04/27 00:50:07;;;;;;;;;;;;;;;;;;1046557;28;4114;-50
2023/04/27 00:50:38;;;;;;;;;;;;;;;;;;1046252;28;3010;-49
2023/04/27 00:51:08;;;;;;;;;;;;;;;;;;1047594;28;3871;-52
2023/04/27 00:51:38;;;;;;;;;;;;;;;;;;1047541;28;1692;-52
2023/04/27 00:52:09;;;;;;;;;;;;;;;;;;1047565;28;4052;-52
2023/04/27 00:52:40;;;;;;;;;;;;;;;;;;1047697;28;2018;-48
2023/04/27 00:53:10;;;;;;;;;;;;;;;;;;1046440;28;4774;-48
2023/04/27 00:53:42;;;;;;;;;;;;;;;;;;1048198;28;1591;-50
2023/04/27 00:54:14;;;;;;;;;;;;;;;;;;1048219;28;4115;-49
2023/04/27 00:54:45;;;;;;;;;;;;;;;;;;1047406;28;1937;-49
2023/04/27 00:55:15;;;;;;;;;;;;;;;;;;1047234;28;4071;-47
2023/04/27 00:55:46;;;;;;;;;;;;;;;;;;1046893;28;1664;-51
2023/04/27 00:56:16;;;;;;;;;;;;;;;;;;1046880;28;4825;-49
2023/04/27 00:56:47;;;;;;;;;;;;;;;;;;1047484;28;1826;-49
2023/04/27 00:57:18;;;;;;;;;;;;;;;;;;1047492;28;3889;-49
2023/04/27 00:57:48;;;;;;;;;;;;;;;;;;1047515;28;1970;-48
2023/04/27 00:58:18;;;;;;;;;;;;;;;;;;1047496;28;3868;-50
2023/04/27 00:58:49;;;;;;;;;;;;;;;;;;1047114;28;2957;-53
2023/04/27 00:59:19;;;;;;;;;;;;;;;;;;1047602;28;4042;-47
2023/04/27 00:59:49;;;;;;;;;;;;;;;;;;1047547;28;1939;-49
2023/04/27 01:00:19;;;;;;;;;;;;;;;;;;1045262;28;4022;-50
2023/04/27 01:00:50;;;;;;;;;;;;;;;;;;1047046;28;1657;-48
2023/04/27 01:01:20;;;;;;;;;;;;;;;;;;1046996;28;4379;-54
2023/04/27 01:01:51;;;;;;;;;;;;;;;;;;1047949;28;1588;-52
2023/04/27 01:02:22;;;;;;;;;;;;;;;;;;1046754;28;4040;-48
2023/04/27 01:02:52;;;;;;;;;;;;;;;;;;1046877;28;2940;-51
2023/04/27 01:03:22;;;;;;;;;;;;;;;;;;1046516;28;4039;-54
2023/04/27 01:03:53;;;;;;;;;;;;;;;;;;1048636;28;3306;-50
2023/04/27 01:04:23;;;;;;;;;;;;;;;;;;1046491;28;4055;-48
2023/04/27 01:04:54;;;;;;;;;;;;;;;;;;1047857;28;2800;-50
2023/04/27 01:05:25;;;;;;;;;;;;;;;;;;1046795;28;4020;-48
2023/04/27 01:05:55;;;;;;;;;;;;;;;;;;1047969;28;1900;-46
2023/04/27 01:06:28;;;;;;;;;;;;;;;;;;1047402;28;4040;-49
2023/04/27 01:06:58;;;;;;;;;;;;;;;;;;1047729;28;2728;-46
2023/04/27 01:07:29;;;;;;;;;;;;;;;;;;1047514;28;3974;-50
2023/04/27 01:07:59;;;;;;;;;;;;;;;;;;1047834;28;1728;-51
2023/04/27 01:08:29;;;;;;;;;;;;;;;;;;1047394;28;3947;-48
2023/04/27 01:09:00;;;;;;;;;;;;;;;;;;1048181;28;3039;-48
2023/04/27 01:09:30;;;;;;;;;;;;;;;;;;1046722;28;3965;-51
2023/04/27 01:10:00;;;;;;;;;;;;;;;;;;1046440;28;1741;-47
2023/04/27 01:10:31;;;;;;;;;;;;;;;;;;1046207;28;3710;-50
2023/04/27 01:11:02;;;;;;;;;;;;;;;;;;1047484;28;3955;-49
2023/04/27 01:11:32;;;;;;;;;;;;;;;;;;1048015;28;1683;-50
2023/04/27 01:12:03;;;;;;;;;;;;;;;;;;1047060;28;4095;-48
2023/04/27 01:12:33;;;;;;;;;;;;;;;;;;1046684;28;2722;-50
2023/04/27 01:13:04;;;;;;;;;;;;;;;;;;1046550;28;3876;-47
2023/04/27 01:13:34;;;;;;;;;;;;;;;;;;1047301;28;1658;-48
2023/04/27 01:14:05;;;;;;;;;;;;;;;;;;1047066;28;3878;-46
2023/04/27 01:14:35;;;;;;;;;;;;;;;;;;1045719;28;2696;-52
2023/04/27 01:15:06;;;;;;;;;;;;;;;;;;1046049;28;3857;-49
2023/04/27 01:15:36;;;;;;;;;;;;;;;;;;1048217;28;1703;-47
2023/04/27 01:16:07;;;;;;;;;;;;;;;;;;1046475;28;4007;-50
2023/04/27 01:16:37;;;;;;;;;;;;;;;;;;1047526;28;2840;-47
2023/04/27 01:17:08;;;;;;;;;;;;;;;;;;1046397;28;4241;-50
2023/04/27 01:17:38;;;;;;;;;;;;;;;;;;1047331;28;1720;-47
2023/04/27 01:18:08;;;;;;;;;;;;;;;;;;1047381;28;4941;-46
2023/04/27 01:18:39;;;;;;;;;;;;;;;;;;1048121;28;1775;-48
2023/04/27 01:19:09;;;;;;;;;;;;;;;;;;1046930;28;3950;-49
2023/04/27 01:19:40;;;;;;;;;;;;;;;;;;1047569;28;1384;-51
2023/04/27 01:20:10;;;;;;;;;;;;;;;;;;1045147;28;3945;-47
2023/04/27 01:20:41;;;;;;;;;;;;;;;;;;1046850;28;3015;-53
2023/04/27 01:21:11;;;;;;;;;;;;;;;;;;1047536;28;4138;-50
2023/04/27 01:21:41;;;;;;;;;;;;;;;;;;1047512;28;1874;-48
2023/04/27 01:22:14;;;;;;;;;;;;;;;;;;1046904;28;3843;-52
2023/04/27 01:22:44;;;;;;;;;;;;;;;;;;1046347;28;2894;-48
2023/04/27 01:23:15;;;;;;;;;;;;;;;;;;1047815;28;4057;-48
2023/04/27 01:23:45;;;;;;;;;;;;;;;;;;1047646;28;1829;-48
2023/04/27 01:24:15;;;;;;;;;;;;;;;;;;1047238;28;3848;-47
2023/04/27 01:24:46;;;;;;;;;;;;;;;;;;1047384;28;1760;-49
2023/04/27 01:25:16;;;;;;;;;;;;;;;;;;1047707;28;3824;-51
2023/04/27 01:25:46;;;;;;;;;;;;;;;;;;1047276;28;1806;-53
2023/04/27 01:26:16;;;;;;;;;;;;;;;;;;1047662;28;4404;-48
2023/04/27 01:26:48;;;;;;;;;;;;;;;;;;1047142;28;1784;-47
2023/04/27 01:27:18;;;;;;;;;;;;;;;;;;1046569;28;3908;-56
2023/04/27 01:27:49;;;;;;;;;;;;;;;;;;1048202;28;1872;-50
2023/04/27 01:28:19;;;;;;;;;;;;;;;;;;1044873;28;3836;-52
2023/04/27 01:28:49;;;;;;;;;;;;;;;;;;1047563;28;2089;-47
2023/04/27 01:29:20;;;;;;;;;;;;;;;;;;1047432;28;4080;-51
2023/04/27 01:29:50;;;;;;;;;;;;;;;;;;1043273;28;2810;-52
2023/04/27 01:30:23;;;;;;;;;;;;;;;;;;1045586;28;3945;-51
2023/04/27 01:30:53;;;;;;;;;;;;;;;;;;1046344;28;2911;-46
2023/04/27 01:31:24;;;;;;;;;;;;;;;;;;1047132;28;3975;-49
2023/04/27 01:31:54;;;;;;;;;;;;;;;;;;1046414;28;3041;-51
2023/04/27 01:32:24;;;;;;;;;;;;;;;;;;1045830;28;4415;-49
2023/04/27 01:32:55;;;;;;;;;;;;;;;;;;1047802;28;3004;-50
2023/04/27 01:33:25;;;;;;;;;;;;;;;;;;1047086;28;3989;-51
2023/04/27 01:33:55;;;;;;;;;;;;;;;;;;1046677;28;2443;-55
2023/04/27 01:34:26;;;;;;;;;;;;;;;;;;1046062;28;3997;-48
2023/04/27 01:34:56;;;;;;;;;;;;;;;;;;1046485;28;1764;-50
2023/04/27 01:35:26;;;;;;;;;;;;;;;;;;1046721;28;3996;-47
2023/04/27 01:35:56;;;;;;;;;;;;;;;;;;1046728;28;2904;-50
2023/04/27 01:36:27;;;;;;;;;;;;;;;;;;1046491;28;3925;-50
2023/04/27 01:36:57;;;;;;;;;;;;;;;;;;1047731;28;1686;-51
2023/04/27 01:37:27;;;;;;;;;;;;;;;;;;1047159;28;3988;-45
2023/04/27 01:37:58;;;;;;;;;;;;;;;;;;1048150;28;2603;-53
2023/04/27 01:38:28;;;;;;;;;;;;;;;;;;1047206;28;3751;-50
2023/04/27 01:38:58;;;;;;;;;;;;;;;;;;1047821;28;3203;-47
2023/04/27 01:39:29;;;;;;;;;;;;;;;;;;1046610;28;3794;-52
2023/04/27 01:39:59;;;;;;;;;;;;;;;;;;1048269;28;1491;-50
2023/04/27 01:40:29;;;;;;;;;;;;;;;;;;1047222;28;4847;-52
2023/04/27 01:41:03;;;;;;;;;;;;;;;;;;1046131;28;2682;-49
2023/04/27 01:41:33;;;;;;;;;;;;;;;;;;1046880;28;3876;-49
2023/04/27 01:42:03;;;;;;;;;;;;;;;;;;1043848;28;3806;-51
2023/04/27 01:42:34;;;;;;;;;;;;;;;;;;1045335;28;2945;-51
2023/04/27 01:43:04;;;;;;;;;;;;;;;;;;1044655;28;4058;-47
2023/04/27 01:43:36;;;;;;;;;;;;;;;;;;1047666;28;1718;-49
2023/04/27 01:44:06;;;;;;;;;;;;;;;;;;1044760;28;3896;-49
2023/04/27 01:44:37;;;;;;;;;;;;;;;;;;1045249;28;2959;-51
2023/04/27 01:45:07;;;;;;;;;;;;;;;;;;1046622;28;4032;-46
2023/04/27 01:45:38;;;;;;;;;;;;;;;;;;1047151;28;1540;-48
2023/04/27 01:46:12;;;;;;;;;;;;;;;;;;1046360;28;4081;-50
2023/04/27 01:46:42;;;;;;;;;;;;;;;;;;1044292;28;2880;-54
2023/04/27 01:47:16;;;;;;;;;;;;;;;;;;1046362;28;4053;-47
2023/04/27 01:47:46;;;;;;;;;;;;;;;;;;1046191;28;2946;-49
2023/04/27 01:48:16;;;;;;;;;;;;;;;;;;1044040;28;4075;-54
2023/04/27 01:48:47;;;;;;;;;;;;;;;;;;1044772;28;3185;-52
2023/04/27 01:49:17;;;;;;;;;;;;;;;;;;1045156;28;3836;-51
2023/04/27 01:49:47;;;;;;;;;;;;;;;;;;1046178;28;3050;-47
2023/04/27 01:50:17;;;;;;;;;;;;;;;;;;1045761;28;4047;-47
2023/04/27 01:50:48;;;;;;;;;;;;;;;;;;1045245;28;2978;-50
2023/04/27 01:51:18;;;;;;;;;;;;;;;;;;1044255;28;3874;-52
2023/04/27 01:51:49;;;;;;;;;;;;;;;;;;1045822;28;3102;-56
2023/04/27 01:52:19;;;;;;;;;;;;;;;;;;1042754;28;4087;-52
2023/04/27 01:52:49;;;;;;;;;;;;;;;;;;1048015;28;1657;-48
2023/04/27 01:53:20;;;;;;;;;;;;;;;;;;1044691;28;3895;-49
2023/04/27 01:53:50;;;;;;;;;;;;;;;;;;1046987;28;1750;-50
2023/04/27 01:54:21;;;;;;;;;;;;;;;;;;1046229;28;4224;-47
2023/04/27 01:54:51;;;;;;;;;;;;;;;;;;1046487;28;1942;-47
2023/04/27 01:55:21;;;;;;;;;;;;;;;;;;1045948;28;3936;-48
2023/04/27 01:55:52;;;;;;;;;;;;;;;;;;1047149;28;1884;-50
2023/04/27 01:56:22;;;;;;;;;;;;;;;;;;1046518;28;3844;-48
2023/04/27 01:56:52;;;;;;;;;;;;;;;;;;1045642;28;1870;-52
2023/04/27 01:57:22;;;;;;;;;;;;;;;;;;1046248;28;3695;-50
2023/04/27 01:57:53;;;;;;;;;;;;;;;;;;1046038;28;2999;-50
2023/04/27 01:58:23;;;;;;;;;;;;;;;;;;1045861;28;3941;-48
2023/04/27 01:58:53;;;;;;;;;;;;;;;;;;1047449;28;1706;-49
2023/04/27 01:59:24;;;;;;;;;;;;;;;;;;1045730;28;4428;-52
2023/04/27 01:59:54;;;;;;;;;;;;;;;;;;1046950;28;2203;-53
2023/04/27 02:00:24;;;;;;;;;;;;;;;;;;1045540;28;3823;-50
2023/04/27 02:00:54;;;;;;;;;;;;;;;;;;1046906;28;1599;-53
2023/04/27 02:01:25;;;;;;;;;;;;;;;;;;1046353;28;4196;-50
2023/04/27 02:01:55;;;;;;;;;;;;;;;;;;1047620;28;2585;-49
2023/04/27 02:02:26;;;;;;;;;;;;;;;;;;1044304;28;3905;-46
2023/04/27 02:02:57;;;;;;;;;;;;;;;;;;1046107;28;1735;-46
2023/04/27 02:03:27;;;;;;;;;;;;;;;;;;1045054;28;4006;-51
2023/04/27 02:03:57;;;;;;;;;;;;;;;;;;1043925;28;3178;-54
2023/04/27 02:04:27;;;;;;;;;;;;;;;;;;1042577;28;4113;-52
2023/04/27 02:04:58;;;;;;;;;;;;;;;;;;1045697;28;2816;-50
2023/04/27 02:05:28;;;;;;;;;;;;;;;;;;1045820;28;3731;-48
2023/04/27 02:05:58;;;;;;;;;;;;;;;;;;1045875;28;3364;-48
2023/04/27 02:06:29;;;;;;;;;;;;;;;;;;1046203;28;3975;-53
2023/04/27 02:06:59;;;;;;;;;;;;;;;;;;1046085;28;2902;-50
2023/04/27 02:07:29;;;;;;;;;;;;;;;;;;1045215;28;3774;-48
2023/04/27 02:07:59;;;;;;;;;;;;;;;;;;1047925;28;1698;-53
2023/04/27 02:08:30;;;;;;;;;;;;;;;;;;1044405;28;3796;-46
2023/04/27 02:09:00;;;;;;;;;;;;;;;;;;1046064;28;2899;-49
2023/04/27 02:09:30;;;;;;;;;;;;;;;;;;1046295;28;3842;-45
2023/04/27 02:10:01;;;;;;;;;;;;;;;;;;1046822;28;4385;-46
2023/04/27 02:10:31;;;;;;;;;;;;;;;;;;1046330;28;2936;-48
2023/04/27 02:11:01;;;;;;;;;;;;;;;;;;1045784;28;3966;-50
2023/04/27 02:11:32;;;;;;;;;;;;;;;;;;1048443;28;1684;-47
2023/04/27 02:12:02;;;;;;;;;;;;;;;;;;1047094;28;4129;-50
2023/04/27 02:12:32;;;;;;;;;;;;;;;;;;1044352;28;3603;-53
2023/04/27 02:13:03;;;;;;;;;;;;;;;;;;1045990;28;3985;-51
2023/04/27 02:13:33;;;;;;;;;;;;;;;;;;1047735;28;1622;-49
2023/04/27 02:14:03;;;;;;;;;;;;;;;;;;1046808;28;3970;-49
2023/04/27 02:14:33;;;;;;;;;;;;;;;;;;1046494;28;2588;-46
2023/04/27 02:15:04;;;;;;;;;;;;;;;;;;1045362;28;4056;-49
2023/04/27 02:15:35;;;;;;;;;;;;;;;;;;1044305;28;2899;-49
2023/04/27 02:16:05;;;;;;;;;;;;;;;;;;1046906;28;4378;-52
2023/04/27 02:16:36;;;;;;;;;;;;;;;;;;1045465;28;3010;-51
2023/04/27 02:17:06;;;;;;;;;;;;;;;;;;1043572;28;4395;-49
2023/04/27 02:17:37;;;;;;;;;;;;;;;;;;1046302;28;2579;-48
2023/04/27 02:18:08;;;;;;;;;;;;;;;;;;1044723;28;4084;-48
2023/04/27 02:18:38;;;;;;;;;;;;;;;;;;1047164;28;2990;-47
2023/04/27 02:19:08;;;;;;;;;;;;;;;;;;1046141;28;4370;-48
2023/04/27 02:19:38;;;;;;;;;;;;;;;;;;1046902;28;1968;-51
2023/04/27 02:20:09;;;;;;;;;;;;;;;;;;1045247;28;4029;-51
2023/04/27 02:20:40;;;;;;;;;;;;;;;;;;1046847;28;1838;-52
2023/04/27 02:21:11;;;;;;;;;;;;;;;;;;1046930;28;3968;-51
2023/04/27 02:21:41;;;;;;;;;;;;;;;;;;1045937;28;3170;-49
2023/04/27 02:22:11;;;;;;;;;;;;;;;;;;1046566;28;4039;-49
2023/04/27 02:22:43;;;;;;;;;;;;;;;;;;1046145;28;2844;-51
2023/04/27 02:23:13;;;;;;;;;;;;;;;;;;1043810;28;3804;-49
2023/04/27 02:23:43;;;;;;;;;;;;;;;;;;1045322;28;3204;-51
2023/04/27 02:24:14;;;;;;;;;;;;;;;;;;1045320;28;3859;-51
2023/04/27 02:24:44;;;;;;;;;;;;;;;;;;1046263;28;1678;-47
2023/04/27 02:25:14;;;;;;;;;;;;;;;;;;1044458;28;4005;-47
2023/04/27 02:25:45;;;;;;;;;;;;;;;;;;1046133;28;2860;-52
2023/04/27 02:26:16;;;;;;;;;;;;;;;;;;1046541;28;3981;-49
2023/04/27 02:26:47;;;;;;;;;;;;;;;;;;1044631;28;2897;-53
2023/04/27 02:27:17;;;;;;;;;;;;;;;;;;1043100;28;3891;-49
2023/04/27 02:27:47;;;;;;;;;;;;;;;;;;1043852;28;2863;-49
2023/04/27 02:28:18;;;;;;;;;;;;;;;;;;1044491;28;4092;-49
2023/04/27 02:28:48;;;;;;;;;;;;;;;;;;1044463;28;2994;-52
2023/04/27 02:29:19;;;;;;;;;;;;;;;;;;1046389;28;4168;-53
2023/04/27 02:29:49;;;;;;;;;;;;;;;;;;1047471;28;1719;-49
2023/04/27 02:30:20;;;;;;;;;;;;;;;;;;1041067;28;4467;-48
2023/04/27 02:30:50;;;;;;;;;;;;;;;;;;1045882;28;4305;-49
2023/04/27 02:31:20;;;;;;;;;;;;;;;;;;1045159;28;3966;-50
2023/04/27 02:31:50;;;;;;;;;;;;;;;;;;1045309;28;2822;-53
2023/04/27 02:32:21;;;;;;;;;;;;;;;;;;1043442;28;4050;-50
2023/04/27 02:32:51;;;;;;;;;;;;;;;;;;1044548;28;2975;-50
2023/04/27 02:33:21;;;;;;;;;;;;;;;;;;1043457;28;4056;-52
2023/04/27 02:33:52;;;;;;;;;;;;;;;;;;1046541;28;3092;-51
2023/04/27 02:34:22;;;;;;;;;;;;;;;;;;1044882;28;3772;-55
2023/04/27 02:34:52;;;;;;;;;;;;;;;;;;1047580;28;1639;-49
2023/04/27 02:35:23;;;;;;;;;;;;;;;;;;1042410;28;4015;-47
2023/04/27 02:35:53;;;;;;;;;;;;;;;;;;1044775;28;2939;-53
2023/04/27 02:36:23;;;;;;;;;;;;;;;;;;1046732;28;4078;-47
2023/04/27 02:36:54;;;;;;;;;;;;;;;;;;1047594;28;1728;-52
2023/04/27 02:37:24;;;;;;;;;;;;;;;;;;1043772;28;4023;-46
2023/04/27 02:37:54;;;;;;;;;;;;;;;;;;1047022;28;3122;-54
2023/04/27 02:38:24;;;;;;;;;;;;;;;;;;1045529;28;4063;-49
2023/04/27 02:38:55;;;;;;;;;;;;;;;;;;1045645;28;3004;-50
2023/04/27 02:39:25;;;;;;;;;;;;;;;;;;1044914;28;3923;-52
2023/04/27 02:39:56;;;;;;;;;;;;;;;;;;1046605;28;1380;-50
2023/04/27 02:40:26;;;;;;;;;;;;;;;;;;1045108;28;4179;-48
2023/04/27 02:40:56;;;;;;;;;;;;;;;;;;1046423;28;3295;-53
2023/04/27 02:41:30;;;;;;;;;;;;;;;;;;1044976;28;3954;-51
2023/04/27 02:42:01;;;;;;;;;;;;;;;;;;1045363;28;3211;-52
2023/04/27 02:42:32;;;;;;;;;;;;;;;;;;1042425;28;3761;-48
2023/04/27 02:43:02;;;;;;;;;;;;;;;;;;1039468;28;4109;-47
2023/04/27 02:43:33;;;;;;;;;;;;;;;;;;1040813;28;2876;-52
2023/04/27 02:44:03;;;;;;;;;;;;;;;;;;1041506;28;3895;-47
2023/04/27 02:44:33;;;;;;;;;;;;;;;;;;1044715;28;2592;-51
2023/04/27 02:45:05;;;;;;;;;;;;;;;;;;1042984;28;3807;-49
2023/04/27 02:45:35;;;;;;;;;;;;;;;;;;1046391;28;2964;-52
2023/04/27 02:46:06;;;;;;;;;;;;;;;;;;1043976;28;3981;-48
2023/04/27 02:46:36;;;;;;;;;;;;;;;;;;1042989;28;3362;-50
2023/04/27 02:47:06;;;;;;;;;;;;;;;;;;1043083;28;3861;-47
2023/04/27 02:47:36;;;;;;;;;;;;;;;;;;1046982;28;1588;-51
2023/04/27 02:48:07;;;;;;;;;;;;;;;;;;1046950;28;4040;-49
2023/04/27 02:48:37;;;;;;;;;;;;;;;;;;1044075;28;3169;-50
2023/04/27 02:49:07;;;;;;;;;;;;;;;;;;1044392;28;3963;-55
2023/04/27 02:49:38;;;;;;;;;;;;;;;;;;1044597;28;3219;-53
2023/04/27 02:50:09;;;;;;;;;;;;;;;;;;1043244;28;4044;-53
2023/04/27 02:50:40;;;;;;;;;;;;;;;;;;1044536;28;2991;-52
2023/04/27 02:51:10;;;;;;;;;;;;;;;;;;1044993;28;3946;-52
2023/04/27 02:51:40;;;;;;;;;;;;;;;;;;1047064;28;1785;-50
2023/04/27 02:52:10;;;;;;;;;;;;;;;;;;1044419;28;3863;-54
2023/04/27 02:52:41;;;;;;;;;;;;;;;;;;1044214;28;3079;-50
2023/04/27 02:53:11;;;;;;;;;;;;;;;;;;1046153;28;4067;-48
2023/04/27 02:53:41;;;;;;;;;;;;;;;;;;1045629;28;2939;-52
2023/04/27 02:54:11;;;;;;;;;;;;;;;;;;1046263;28;4040;-50
2023/04/27 02:54:42;;;;;;;;;;;;;;;;;;1044870;28;2756;-54
2023/04/27 02:55:13;;;;;;;;;;;;;;;;;;1044586;28;4506;-47
2023/04/27 02:55:47;;;;;;;;;;;;;;;;;;1045580;28;2890;-46
2023/04/27 02:56:17;;;;;;;;;;;;;;;;;;1046359;28;3938;-48
2023/04/27 02:56:47;;;;;;;;;;;;;;;;;;1044876;28;3225;-51
2023/04/27 02:57:18;;;;;;;;;;;;;;;;;;1046130;28;3856;-48
2023/04/27 02:57:48;;;;;;;;;;;;;;;;;;1046513;28;3165;-49
2023/04/27 02:58:18;;;;;;;;;;;;;;;;;;1045382;28;3749;-50
2023/04/27 02:58:49;;;;;;;;;;;;;;;;;;1045408;28;2946;-49
2023/04/27 02:59:19;;;;;;;;;;;;;;;;;;1046348;28;4470;-51
2023/04/27 02:59:49;;;;;;;;;;;;;;;;;;1046933;28;2218;-49
2023/04/27 03:00:20;;;;;;;;;;;;;;;;;;1043141;28;4155;-48
2023/04/27 03:00:54;;;;;;;;;;;;;;;;;;1044769;28;2948;-52
2023/04/27 03:01:24;;;;;;;;;;;;;;;;;;1045828;28;3712;-49
2023/04/27 03:01:55;;;;;;;;;;;;;;;;;;1045447;28;1964;-49
2023/04/27 03:02:25;;;;;;;;;;;;;;;;;;1044109;28;4372;-51
2023/04/27 03:02:56;;;;;;;;;;;;;;;;;;1042563;28;3035;-54
2023/04/27 03:03:26;;;;;;;;;;;;;;;;;;1044203;28;4125;-48
2023/04/27 03:03:56;;;;;;;;;;;;;;;;;;1044679;28;2990;-52
2023/04/27 03:04:26;;;;;;;;;;;;;;;;;;1042490;28;4046;-48
2023/04/27 03:04:58;;;;;;;;;;;;;;;;;;1046563;28;1770;-53
2023/04/27 03:05:30;;;;;;;;;;;;;;;;;;1046548;28;4062;-50
2023/04/27 03:06:00;;;;;;;;;;;;;;;;;;1042850;28;3516;-51
2023/04/27 03:06:31;;;;;;;;;;;;;;;;;;1046141;28;3761;-51
2023/04/27 03:07:02;;;;;;;;;;;;;;;;;;1044050;28;4071;-47
2023/04/27 03:07:32;;;;;;;;;;;;;;;;;;1044603;28;2735;-53
2023/04/27 03:08:02;;;;;;;;;;;;;;;;;;1046550;28;4091;-51
2023/04/27 03:08:33;;;;;;;;;;;;;;;;;;1042252;28;1989;-49
2023/04/27 03:09:03;;;;;;;;;;;;;;;;;;1039481;28;4523;-49
2023/04/27 03:09:34;;;;;;;;;;;;;;;;;;1040269;28;2968;-47
2023/04/27 03:10:04;;;;;;;;;;;;;;;;;;1042817;28;4104;-51
2023/04/27 03:10:35;;;;;;;;;;;;;;;;;;1042932;28;1856;-48
2023/04/27 03:11:05;;;;;;;;;;;;;;;;;;1039909;28;4394;-51
2023/04/27 03:11:36;;;;;;;;;;;;;;;;;;1040192;28;2993;-47
2023/04/27 03:12:06;;;;;;;;;;;;;;;;;;1043395;28;3842;-48
2023/04/27 03:12:36;;;;;;;;;;;;;;;;;;1041470;28;2400;-49
2023/04/27 03:13:06;;;;;;;;;;;;;;;;;;1040429;28;4490;-52
2023/04/27 03:13:45;;;;;;;;;;;;;;;;;;1041103;28;2948;-51
2023/04/27 03:14:16;;;;;;;;;;;;;;;;;;1042441;28;3993;-52
2023/04/27 03:14:46;;;;;;;;;;;;;;;;;;1040963;28;1813;-48
2023/04/27 03:15:16;;;;;;;;;;;;;;;;;;1040465;28;4310;-49
2023/04/27 03:15:47;;;;;;;;;;;;;;;;;;1041249;28;2890;-49
2023/04/27 03:16:17;;;;;;;;;;;;;;;;;;1039648;28;4067;-49
2023/04/27 03:16:47;;;;;;;;;;;;;;;;;;1040227;28;2960;-52
2023/04/27 03:17:18;;;;;;;;;;;;;;;;;;1041630;28;3767;-55
2023/04/27 03:17:48;;;;;;;;;;;;;;;;;;1042556;28;1831;-47
2023/04/27 03:18:18;;;;;;;;;;;;;;;;;;1040525;28;4025;-55
2023/04/27 03:18:49;;;;;;;;;;;;;;;;;;1041914;28;3217;-49
2023/04/27 03:19:19;;;;;;;;;;;;;;;;;;1042464;28;4003;-51
2023/04/27 03:19:49;;;;;;;;;;;;;;;;;;1042569;28;2648;-53
2023/04/27 03:20:20;;;;;;;;;;;;;;;;;;1039833;28;3803;-49
2023/04/27 03:20:50;;;;;;;;;;;;;;;;;;1040699;28;2702;-51
2023/04/27 03:21:21;;;;;;;;;;;;;;;;;;1039846;28;3868;-51
2023/04/27 03:21:51;;;;;;;;;;;;;;;;;;1039994;28;4814;-53
2023/04/27 03:22:21;;;;;;;;;;;;;;;;;;1039656;28;4429;-52
2023/04/27 03:22:51;;;;;;;;;;;;;;;;;;1041304;28;2650;-46
2023/04/27 03:23:22;;;;;;;;;;;;;;;;;;1040393;28;4035;-51
2023/04/27 03:23:52;;;;;;;;;;;;;;;;;;1042084;28;3104;-52
2023/04/27 03:24:24;;;;;;;;;;;;;;;;;;1042022;28;4240;-47
2023/04/27 03:24:54;;;;;;;;;;;;;;;;;;1042216;28;3116;-51
2023/04/27 03:25:24;;;;;;;;;;;;;;;;;;1041637;28;4241;-48
2023/04/27 03:25:55;;;;;;;;;;;;;;;;;;1042462;28;1753;-54
2023/04/27 03:26:25;;;;;;;;;;;;;;;;;;1039842;28;4171;-47
2023/04/27 03:26:55;;;;;;;;;;;;;;;;;;1041944;28;1840;-48
2023/04/27 03:27:26;;;;;;;;;;;;;;;;;;1040313;28;3863;-49
2023/04/27 03:27:56;;;;;;;;;;;;;;;;;;1041394;28;2971;-52
2023/04/27 03:28:26;;;;;;;;;;;;;;;;;;1042882;28;3797;-52
2023/04/27 03:28:56;;;;;;;;;;;;;;;;;;1041578;28;2833;-50
2023/04/27 03:29:27;;;;;;;;;;;;;;;;;;1041252;28;3801;-51
2023/04/27 03:29:57;;;;;;;;;;;;;;;;;;1042578;28;2043;-48
2023/04/27 03:30:27;;;;;;;;;;;;;;;;;;1039368;28;3989;-51
2023/04/27 03:30:58;;;;;;;;;;;;;;;;;;1041976;28;3373;-52
2023/04/27 03:31:28;;;;;;;;;;;;;;;;;;1040275;28;3856;-53
2023/04/27 03:31:58;;;;;;;;;;;;;;;;;;1039954;28;2931;-49
2023/04/27 03:32:28;;;;;;;;;;;;;;;;;;1040378;28;3862;-54